sensor_id;sensor_type;location;lat;lon;timestamp;pressure;altitude;pressure_sealevel;temperature;humidity
75166;BME280;63747;48.042;10.088;2023-03-19T00:02:06;94818.06;;;6.84;59.25
75166;BME280;63747;48.042;10.088;2023-03-19T00:05:08;94816.56;;;6.73;58.85
75166;BME280;63747;48.042;10.088;2023-03-19T00:08:08;94824.63;;;6.72;59.14
75166;BME280;63747;48.042;10.088;2023-03-19T00:11:11;94819.34;;;6.72;59.46
75166;BME280;63747;48.042;10.088;2023-03-19T00:14:13;94826.28;;;6.73;59.46
75166;BME280;63747;48.042;10.088;2023-03-19T00:17:13;94827.75;;;6.75;59.50
75166;BME280;63747;48.042;10.088;2023-03-19T00:20:14;94828.28;;;6.79;59.57
75166;BME280;63747;48.042;10.088;2023-03-19T00:23:17;94831.22;;;6.76;59.55
75166;BME280;63747;48.042;10.088;2023-03-19T00:26:18;94829.41;;;6.76;59.67
75166;BME280;63747;48.042;10.088;2023-03-19T00:29:19;94830.75;;;6.80;59.77
75166;BME280;63747;48.042;10.088;2023-03-19T00:32:20;94836.84;;;6.81;59.54
75166;BME280;63747;48.042;10.088;2023-03-19T00:35:20;94837.28;;;6.76;59.66
75166;BME280;63747;48.042;10.088;2023-03-19T00:38:21;94840.91;;;6.75;59.90
75166;BME280;63747;48.042;10.088;2023-03-19T00:41:22;94845.19;;;6.76;59.91
75166;BME280;63747;48.042;10.088;2023-03-19T00:44:23;94850.16;;;6.79;59.90
75166;BME280;63747;48.042;10.088;2023-03-19T00:47:23;94853.47;;;6.82;59.69
75166;BME280;63747;48.042;10.088;2023-03-19T00:50:24;94847.84;;;6.85;59.60
75166;BME280;63747;48.042;10.088;2023-03-19T00:53:26;94848.34;;;6.80;59.81
75166;BME280;63747;48.042;10.088;2023-03-19T00:56:26;94849.84;;;6.83;59.75
75166;BME280;63747;48.042;10.088;2023-03-19T00:59:27;94849.53;;;6.86;59.90
75166;BME280;63747;48.042;10.088;2023-03-19T01:02:28;94854.94;;;6.84;59.80
75166;BME280;63747;48.042;10.088;2023-03-19T01:05:29;94858.72;;;6.82;59.86
75166;BME280;63747;48.042;10.088;2023-03-19T01:08:30;94856.25;;;6.80;59.84
75166;BME280;63747;48.042;10.088;2023-03-19T01:11:30;94840.91;;;6.75;60.07
75166;BME280;63747;48.042;10.088;2023-03-19T01:14:31;94845.84;;;6.70;60.29
75166;BME280;63747;48.042;10.088;2023-03-19T01:17:32;94848.78;;;6.67;60.48
75166;BME280;63747;48.042;10.088;2023-03-19T01:20:34;94842.72;;;6.67;60.65
75166;BME280;63747;48.042;10.088;2023-03-19T01:23:34;94849.16;;;6.72;60.81
75166;BME280;63747;48.042;10.088;2023-03-19T01:26:35;94852.97;;;6.78;60.73
75166;BME280;63747;48.042;10.088;2023-03-19T01:29:36;94848.19;;;6.82;60.64
75166;BME280;63747;48.042;10.088;2023-03-19T01:32:37;94848.19;;;6.82;60.71
75166;BME280;63747;48.042;10.088;2023-03-19T01:35:37;94847.53;;;6.79;60.74
75166;BME280;63747;48.042;10.088;2023-03-19T01:38:38;94857.38;;;6.77;60.99
75166;BME280;63747;48.042;10.088;2023-03-19T01:41:39;94857.38;;;6.77;61.03
75166;BME280;63747;48.042;10.088;2023-03-19T01:44:40;94854.91;;;6.76;61.19
75166;BME280;63747;48.042;10.088;2023-03-19T01:47:42;94854.25;;;6.74;61.33
75166;BME280;63747;48.042;10.088;2023-03-19T01:50:44;94848.16;;;6.73;61.43
75166;BME280;63747;48.042;10.088;2023-03-19T01:53:52;94851.78;;;6.72;60.88
75166;BME280;63747;48.042;10.088;2023-03-19T01:57:02;94859.69;;;6.72;61.20
75166;BME280;63747;48.042;10.088;2023-03-19T02:00:05;94848.81;;;6.75;61.34
75166;BME280;63747;48.042;10.088;2023-03-19T02:03:07;94855.91;;;6.75;61.44
75166;BME280;63747;48.042;10.088;2023-03-19T02:06:09;94860.00;;;6.77;61.47
75166;BME280;63747;48.042;10.088;2023-03-19T02:09:13;94863.34;;;6.79;61.49
75166;BME280;63747;48.042;10.088;2023-03-19T02:12:15;94865.66;;;6.83;61.55
75166;BME280;63747;48.042;10.088;2023-03-19T02:15:15;94861.56;;;6.88;60.87
75166;BME280;63747;48.042;10.088;2023-03-19T02:18:16;94866.81;;;6.88;61.11
75166;BME280;63747;48.042;10.088;2023-03-19T02:21:18;94861.56;;;6.88;61.35
75166;BME280;63747;48.042;10.088;2023-03-19T02:24:27;94872.91;;;6.89;61.58
75166;BME280;63747;48.042;10.088;2023-03-19T02:27:31;94876.53;;;6.88;61.39
75166;BME280;63747;48.042;10.088;2023-03-19T02:30:33;94880.81;;;6.89;61.44
75166;BME280;63747;48.042;10.088;2023-03-19T02:33:34;94879.00;;;6.89;61.57
75166;BME280;63747;48.042;10.088;2023-03-19T02:36:42;94878.34;;;6.87;61.39
75166;BME280;63747;48.042;10.088;2023-03-19T02:39:50;94883.97;;;6.92;61.46
75166;BME280;63747;48.042;10.088;2023-03-19T02:42:53;94895.34;;;6.93;61.31
75166;BME280;63747;48.042;10.088;2023-03-19T02:45:54;94904.72;;;6.95;61.22
75166;BME280;63747;48.042;10.088;2023-03-19T02:48:55;94900.94;;;6.98;61.14
75166;BME280;63747;48.042;10.088;2023-03-19T02:51:56;94902.94;;;7.04;61.04
75166;BME280;63747;48.042;10.088;2023-03-19T02:54:57;94913.66;;;7.02;60.92
75166;BME280;63747;48.042;10.088;2023-03-19T02:57:57;94916.28;;;7.02;61.14
75166;BME280;63747;48.042;10.088;2023-03-19T03:00:58;94916.44;;;7.01;60.98
75166;BME280;63747;48.042;10.088;2023-03-19T03:03:59;94922.06;;;7.06;60.70
75166;BME280;63747;48.042;10.088;2023-03-19T03:06:59;94916.16;;;7.12;60.30
75166;BME280;63747;48.042;10.088;2023-03-19T03:10:00;94926.06;;;7.18;60.00
75166;BME280;63747;48.042;10.088;2023-03-19T03:13:01;94915.50;;;7.18;59.97
75166;BME280;63747;48.042;10.088;2023-03-19T03:16:02;94920.66;;;7.20;59.62
75166;BME280;63747;48.042;10.088;2023-03-19T03:19:04;94922.28;;;7.21;59.33
75166;BME280;63747;48.042;10.088;2023-03-19T03:22:05;94919.13;;;7.17;59.03
75166;BME280;63747;48.042;10.088;2023-03-19T03:25:07;94930.19;;;7.21;58.94
75166;BME280;63747;48.042;10.088;2023-03-19T03:28:09;94934.66;;;7.20;58.80
75166;BME280;63747;48.042;10.088;2023-03-19T03:31:11;94937.28;;;7.20;58.67
75166;BME280;63747;48.042;10.088;2023-03-19T03:34:12;94939.59;;;7.23;58.10
75166;BME280;63747;48.042;10.088;2023-03-19T03:37:13;94945.88;;;7.30;57.82
75166;BME280;63747;48.042;10.088;2023-03-19T03:40:13;94950.03;;;7.33;57.73
75166;BME280;63747;48.042;10.088;2023-03-19T03:43:15;94946.38;;;7.34;57.59
75166;BME280;63747;48.042;10.088;2023-03-19T03:46:16;94956.59;;;7.37;57.33
75166;BME280;63747;48.042;10.088;2023-03-19T03:49:16;94957.94;;;7.41;57.43
75166;BME280;63747;48.042;10.088;2023-03-19T03:52:17;94962.41;;;7.41;57.39
75166;BME280;63747;48.042;10.088;2023-03-19T03:55:18;94965.84;;;7.41;57.42
75166;BME280;63747;48.042;10.088;2023-03-19T03:58:18;94970.47;;;7.39;57.59
75166;BME280;63747;48.042;10.088;2023-03-19T04:01:19;94970.47;;;7.39;57.26
75166;BME280;63747;48.042;10.088;2023-03-19T04:04:20;94966.03;;;7.40;57.32
75166;BME280;63747;48.042;10.088;2023-03-19T04:07:21;94971.94;;;7.42;57.33
75166;BME280;63747;48.042;10.088;2023-03-19T04:10:21;94970.31;;;7.41;57.29
75166;BME280;63747;48.042;10.088;2023-03-19T04:13:23;94968.31;;;7.43;57.43
75166;BME280;63747;48.042;10.088;2023-03-19T04:16:24;94974.63;;;7.50;57.42
75166;BME280;63747;48.042;10.088;2023-03-19T04:19:25;94978.41;;;7.47;57.35
75166;BME280;63747;48.042;10.088;2023-03-19T04:22:26;94972.81;;;7.50;57.61
75166;BME280;63747;48.042;10.088;2023-03-19T04:25:27;94972.81;;;7.50;57.55
75166;BME280;63747;48.042;10.088;2023-03-19T04:28:28;94974.16;;;7.54;57.42
75166;BME280;63747;48.042;10.088;2023-03-19T04:31:29;94971.81;;;7.51;57.63
75166;BME280;63747;48.042;10.088;2023-03-19T04:34:30;94987.50;;;7.53;57.76
75166;BME280;63747;48.042;10.088;2023-03-19T04:37:31;94990.13;;;7.53;57.63
75166;BME280;63747;48.042;10.088;2023-03-19T04:40:31;94983.03;;;7.53;57.74
75166;BME280;63747;48.042;10.088;2023-03-19T04:43:32;94996.69;;;7.49;57.95
75166;BME280;63747;48.042;10.088;2023-03-19T04:46:33;94995.34;;;7.45;58.13
75166;BME280;63747;48.042;10.088;2023-03-19T04:49:33;94994.41;;;7.46;58.12
75166;BME280;63747;48.042;10.088;2023-03-19T04:52:35;94997.50;;;7.41;58.06
75166;BME280;63747;48.042;10.088;2023-03-19T04:55:39;95009.38;;;7.45;58.18
75166;BME280;63747;48.042;10.088;2023-03-19T04:58:40;95019.25;;;7.43;58.64
75166;BME280;63747;48.042;10.088;2023-03-19T05:01:41;95028.69;;;7.46;58.42
75166;BME280;63747;48.042;10.088;2023-03-19T05:04:42;95021.44;;;7.48;58.66
75166;BME280;63747;48.042;10.088;2023-03-19T05:07:43;95015.00;;;7.50;58.50
75166;BME280;63747;48.042;10.088;2023-03-19T05:10:44;95024.06;;;7.48;58.64
75166;BME280;63747;48.042;10.088;2023-03-19T05:13:44;95032.66;;;7.58;58.53
75166;BME280;63747;48.042;10.088;2023-03-19T05:16:45;95037.63;;;7.61;58.58
75166;BME280;63747;48.042;10.088;2023-03-19T05:19:46;95041.59;;;7.65;58.78
75166;BME280;63747;48.042;10.088;2023-03-19T05:22:47;95040.94;;;7.63;58.87
75166;BME280;63747;48.042;10.088;2023-03-19T05:25:48;95047.16;;;7.54;58.99
75166;BME280;63747;48.042;10.088;2023-03-19T05:28:49;95053.28;;;7.54;59.08
75166;BME280;63747;48.042;10.088;2023-03-19T05:31:49;95057.34;;;7.49;59.29
75166;BME280;63747;48.042;10.088;2023-03-19T05:34:50;95057.91;;;7.60;59.22
75166;BME280;63747;48.042;10.088;2023-03-19T05:37:51;95067.16;;;7.65;58.94
75166;BME280;63747;48.042;10.088;2023-03-19T05:40:51;95067.00;;;7.66;58.75
75166;BME280;63747;48.042;10.088;2023-03-19T05:43:52;95066.31;;;7.64;58.92
75166;BME280;63747;48.042;10.088;2023-03-19T05:46:53;95065.66;;;7.62;59.19
75166;BME280;63747;48.042;10.088;2023-03-19T05:49:53;95072.59;;;7.63;59.27
75166;BME280;63747;48.042;10.088;2023-03-19T05:52:55;95080.00;;;7.59;58.98
75166;BME280;63747;48.042;10.088;2023-03-19T05:55:55;95083.13;;;7.63;59.18
75166;BME280;63747;48.042;10.088;2023-03-19T05:58:56;95078.31;;;7.58;59.40
75166;BME280;63747;48.042;10.088;2023-03-19T06:01:57;95084.75;;;7.56;59.66
75166;BME280;63747;48.042;10.088;2023-03-19T06:04:57;95086.25;;;7.58;59.66
75166;BME280;63747;48.042;10.088;2023-03-19T06:07:58;95092.41;;;7.67;59.57
75166;BME280;63747;48.042;10.088;2023-03-19T06:10:59;95087.19;;;7.75;59.45
75166;BME280;63747;48.042;10.088;2023-03-19T06:13:59;95091.81;;;7.81;59.12
75166;BME280;63747;48.042;10.088;2023-03-19T06:17:00;95088.69;;;7.86;58.99
75166;BME280;63747;48.042;10.088;2023-03-19T06:20:01;95099.44;;;7.93;58.89
75166;BME280;63747;48.042;10.088;2023-03-19T06:23:02;95098.16;;;7.97;58.88
75166;BME280;63747;48.042;10.088;2023-03-19T06:26:03;95093.06;;;8.03;58.62
75166;BME280;63747;48.042;10.088;2023-03-19T06:29:05;95096.22;;;8.07;58.71
75166;BME280;63747;48.042;10.088;2023-03-19T06:32:06;95105.13;;;8.14;58.75
75166;BME280;63747;48.042;10.088;2023-03-19T06:35:07;95105.13;;;8.14;59.11
75166;BME280;63747;48.042;10.088;2023-03-19T06:38:07;95107.09;;;8.20;59.23
75166;BME280;63747;48.042;10.088;2023-03-19T06:41:08;95114.25;;;8.36;59.24
75166;BME280;63747;48.042;10.088;2023-03-19T06:44:09;95115.09;;;8.44;59.03
75166;BME280;63747;48.042;10.088;2023-03-19T06:47:10;95112.16;;;8.56;58.99
75166;BME280;63747;48.042;10.088;2023-03-19T06:50:12;95116.97;;;8.68;58.49
75166;BME280;63747;48.042;10.088;2023-03-19T06:53:13;95110.03;;;8.76;58.26
75166;BME280;63747;48.042;10.088;2023-03-19T06:56:14;95113.97;;;8.80;58.50
75166;BME280;63747;48.042;10.088;2023-03-19T06:59:15;95122.41;;;8.91;58.49
75166;BME280;63747;48.042;10.088;2023-03-19T07:02:16;95117.13;;;8.99;58.24
75166;BME280;63747;48.042;10.088;2023-03-19T07:05:17;95116.13;;;9.09;58.29
75166;BME280;63747;48.042;10.088;2023-03-19T07:08:18;95122.72;;;9.13;57.90
75166;BME280;63747;48.042;10.088;2023-03-19T07:11:19;95130.00;;;9.19;58.09
75166;BME280;63747;48.042;10.088;2023-03-19T07:14:20;95127.88;;;9.39;58.05
75166;BME280;63747;48.042;10.088;2023-03-19T07:17:22;95125.34;;;9.53;57.97
75166;BME280;63747;48.042;10.088;2023-03-19T07:20:22;95130.63;;;9.62;57.95
75166;BME280;63747;48.042;10.088;2023-03-19T07:23:23;95132.88;;;9.81;57.97
75166;BME280;63747;48.042;10.088;2023-03-19T07:26:24;95129.03;;;10.00;57.95
75166;BME280;63747;48.042;10.088;2023-03-19T07:29:25;95132.44;;;10.17;57.63
75166;BME280;63747;48.042;10.088;2023-03-19T07:32:26;95130.38;;;10.27;57.34
75166;BME280;63747;48.042;10.088;2023-03-19T07:35:26;95134.00;;;10.34;57.22
75166;BME280;63747;48.042;10.088;2023-03-19T07:38:27;95138.69;;;10.55;57.06
75166;BME280;63747;48.042;10.088;2023-03-19T07:41:28;95135.44;;;10.76;56.71
75166;BME280;63747;48.042;10.088;2023-03-19T07:44:28;95131.44;;;10.80;55.54
75166;BME280;63747;48.042;10.088;2023-03-19T07:47:29;95134.44;;;10.69;54.88
75166;BME280;63747;48.042;10.088;2023-03-19T07:50:30;95135.44;;;10.76;53.97
75166;BME280;63747;48.042;10.088;2023-03-19T07:53:31;95144.63;;;10.88;53.55
75166;BME280;63747;48.042;10.088;2023-03-19T07:56:31;95138.81;;;10.93;53.14
75166;BME280;63747;48.042;10.088;2023-03-19T07:59:32;95136.53;;;11.04;52.62
75166;BME280;63747;48.042;10.088;2023-03-19T08:02:33;95139.63;;;11.31;52.65
75166;BME280;63747;48.042;10.088;2023-03-19T08:05:33;95137.59;;;11.56;52.30
75166;BME280;63747;48.042;10.088;2023-03-19T08:08:34;95141.75;;;11.73;51.96
75166;BME280;63747;48.042;10.088;2023-03-19T08:11:35;95142.19;;;11.77;50.56
75166;BME280;63747;48.042;10.088;2023-03-19T08:14:36;95140.81;;;11.81;50.63
75166;BME280;63747;48.042;10.088;2023-03-19T08:17:37;95144.66;;;11.63;50.04
75166;BME280;63747;48.042;10.088;2023-03-19T08:20:37;95146.38;;;11.71;50.08
75166;BME280;63747;48.042;10.088;2023-03-19T08:23:38;95137.81;;;11.98;49.98
75166;BME280;63747;48.042;10.088;2023-03-19T08:26:39;95149.44;;;12.42;49.01
75166;BME280;63747;48.042;10.088;2023-03-19T08:29:40;95143.22;;;12.71;48.46
75166;BME280;63747;48.042;10.088;2023-03-19T08:32:40;95140.91;;;13.04;47.60
75166;BME280;63747;48.042;10.088;2023-03-19T08:35:43;95127.00;;;13.23;48.02
75166;BME280;63747;48.042;10.088;2023-03-19T08:38:44;95129.47;;;13.53;47.51
75166;BME280;63747;48.042;10.088;2023-03-19T08:41:45;95127.91;;;13.93;46.67
75166;BME280;63747;48.042;10.088;2023-03-19T08:44:47;95127.53;;;13.96;45.85
75166;BME280;63747;48.042;10.088;2023-03-19T08:47:48;95136.22;;;14.11;45.63
75166;BME280;63747;48.042;10.088;2023-03-19T08:50:53;95137.66;;;14.14;45.63
75166;BME280;63747;48.042;10.088;2023-03-19T08:53:55;95134.47;;;14.25;45.10
75166;BME280;63747;48.042;10.088;2023-03-19T08:56:55;95133.66;;;14.25;44.80
75166;BME280;63747;48.042;10.088;2023-03-19T08:59:56;95141.19;;;14.21;44.96
75166;BME280;63747;48.042;10.088;2023-03-19T09:02:57;95147.56;;;13.92;45.34
75166;BME280;63747;48.042;10.088;2023-03-19T09:05:59;95142.84;;;13.59;45.21
75166;BME280;63747;48.042;10.088;2023-03-19T09:09:00;95143.00;;;13.30;45.44
75166;BME280;63747;48.042;10.088;2023-03-19T09:12:01;95147.63;;;13.21;45.64
75166;BME280;63747;48.042;10.088;2023-03-19T09:15:01;95143.31;;;13.20;45.54
75166;BME280;63747;48.042;10.088;2023-03-19T09:18:03;95145.47;;;13.31;45.63
75166;BME280;63747;48.042;10.088;2023-03-19T09:21:04;95151.53;;;13.47;44.84
75166;BME280;63747;48.042;10.088;2023-03-19T09:24:05;95151.75;;;13.45;45.69
75166;BME280;63747;48.042;10.088;2023-03-19T09:27:06;95143.81;;;13.52;45.88
75166;BME280;63747;48.042;10.088;2023-03-19T09:30:07;95150.25;;;13.64;45.50
75166;BME280;63747;48.042;10.088;2023-03-19T09:33:08;95151.91;;;13.65;44.92
75166;BME280;63747;48.042;10.088;2023-03-19T09:36:09;95148.88;;;13.47;45.03
75166;BME280;63747;48.042;10.088;2023-03-19T09:39:10;95141.78;;;13.32;45.28
75166;BME280;63747;48.042;10.088;2023-03-19T09:45:33;95146.56;;;13.65;44.92
75166;BME280;63747;48.042;10.088;2023-03-19T09:49:19;95148.31;;;13.79;43.89
75166;BME280;63747;48.042;10.088;2023-03-19T09:52:46;95141.84;;;13.67;44.17
75166;BME280;63747;48.042;10.088;2023-03-19T09:55:50;95144.19;;;13.77;45.20
75166;BME280;63747;48.042;10.088;2023-03-19T09:58:53;95137.44;;;13.81;44.83
75166;BME280;63747;48.042;10.088;2023-03-19T10:02:25;95138.19;;;13.96;44.67
75166;BME280;63747;48.042;10.088;2023-03-19T10:15:31;95126.53;;;14.38;42.71
75166;BME280;63747;48.042;10.088;2023-03-19T10:18:36;95125.72;;;14.38;42.51
75166;BME280;63747;48.042;10.088;2023-03-19T10:24:45;95114.75;;;14.74;42.79
75166;BME280;63747;48.042;10.088;2023-03-19T10:27:51;95113.16;;;15.00;43.04
75166;BME280;63747;48.042;10.088;2023-03-19T10:34:31;95104.50;;;14.84;42.23
75166;BME280;63747;48.042;10.088;2023-03-19T10:37:33;95104.50;;;14.84;42.63
75166;BME280;63747;48.042;10.088;2023-03-19T10:40:43;95092.13;;;14.70;42.26
75166;BME280;63747;48.042;10.088;2023-03-19T10:43:53;95097.69;;;14.75;42.04
75166;BME280;63747;48.042;10.088;2023-03-19T10:46:57;95098.53;;;14.82;41.88
75166;BME280;63747;48.042;10.088;2023-03-19T10:49:58;95097.09;;;14.80;42.30
75166;BME280;63747;48.042;10.088;2023-03-19T10:53:04;95089.31;;;14.78;41.67
75166;BME280;63747;48.042;10.088;2023-03-19T10:56:17;95087.88;;;14.82;42.19
75166;BME280;63747;48.042;10.088;2023-03-19T10:59:24;95084.81;;;14.85;41.61
75166;BME280;63747;48.042;10.088;2023-03-19T11:02:28;95095.94;;;15.22;41.65
75166;BME280;63747;48.042;10.088;2023-03-19T11:05:33;95090.81;;;15.54;41.38
75166;BME280;63747;48.042;10.088;2023-03-19T11:08:35;95077.63;;;15.72;40.58
75166;BME280;63747;48.042;10.088;2023-03-19T11:11:47;95086.47;;;15.86;41.17
75166;BME280;63747;48.042;10.088;2023-03-19T11:14:55;95084.59;;;15.86;40.97
75166;BME280;63747;48.042;10.088;2023-03-19T11:17:59;95074.09;;;15.91;42.13
75166;BME280;63747;48.042;10.088;2023-03-19T11:21:06;95083.09;;;16.03;40.32
75166;BME280;63747;48.042;10.088;2023-03-19T11:24:19;95080.63;;;16.09;40.25
75166;BME280;63747;48.042;10.088;2023-03-19T11:27:32;95079.28;;;16.44;40.45
75166;BME280;63747;48.042;10.088;2023-03-19T11:34:27;95081.03;;;16.19;39.74
75166;BME280;63747;48.042;10.088;2023-03-19T11:37:58;95069.34;;;16.00;40.42
75166;BME280;63747;48.042;10.088;2023-03-19T11:41:25;95067.06;;;16.17;40.26
75166;BME280;63747;48.042;10.088;2023-03-19T11:44:38;95052.31;;;16.46;40.54
75166;BME280;63747;48.042;10.088;2023-03-19T11:54:45;95047.41;;;16.81;40.41
75166;BME280;63747;48.042;10.088;2023-03-19T11:58:06;95047.34;;;16.88;39.90
75166;BME280;63747;48.042;10.088;2023-03-19T12:04:58;95034.03;;;17.06;38.74
75166;BME280;63747;48.042;10.088;2023-03-19T12:18:21;95031.84;;;16.65;38.29
75166;BME280;63747;48.042;10.088;2023-03-19T12:25:02;95031.84;;;16.65;38.11
75166;BME280;63747;48.042;10.088;2023-03-19T12:28:16;95026.94;;;16.17;38.52
75166;BME280;63747;48.042;10.088;2023-03-19T12:31:39;95030.91;;;15.94;38.70
75166;BME280;63747;48.042;10.088;2023-03-19T12:34:51;95038.31;;;15.92;39.67
75166;BME280;63747;48.042;10.088;2023-03-19T12:38:09;95032.06;;;16.12;39.79
75166;BME280;63747;48.042;10.088;2023-03-19T12:41:21;95023.16;;;16.31;38.95
75166;BME280;63747;48.042;10.088;2023-03-19T12:44:29;95019.09;;;16.28;37.93
75166;BME280;63747;48.042;10.088;2023-03-19T12:47:35;95012.28;;;16.96;39.45
75166;BME280;63747;48.042;10.088;2023-03-19T12:50:40;95020.59;;;17.81;38.04
75166;BME280;63747;48.042;10.088;2023-03-19T12:53:49;95008.06;;;17.93;37.19
75166;BME280;63747;48.042;10.088;2023-03-19T12:56:58;95014.34;;;17.87;37.92
75166;BME280;63747;48.042;10.088;2023-03-19T13:03:33;94995.25;;;18.32;36.01
75166;BME280;63747;48.042;10.088;2023-03-19T13:07:01;94997.28;;;18.18;35.22
75166;BME280;63747;48.042;10.088;2023-03-19T13:10:16;94988.44;;;17.99;35.24
75166;BME280;63747;48.042;10.088;2023-03-19T13:19:45;94986.84;;;18.58;35.29
75166;BME280;63747;48.042;10.088;2023-03-19T13:22:56;94990.63;;;18.39;35.49
75166;BME280;63747;48.042;10.088;2023-03-19T13:26:00;94976.44;;;18.50;34.48
75166;BME280;63747;48.042;10.088;2023-03-19T13:29:15;94986.19;;;18.74;35.28
75166;BME280;63747;48.042;10.088;2023-03-19T13:32:23;94977.78;;;19.24;35.59
75166;BME280;63747;48.042;10.088;2023-03-19T13:38:47;94971.78;;;19.57;33.63
75166;BME280;63747;48.042;10.088;2023-03-19T13:45:29;94976.59;;;19.20;34.41
75166;BME280;63747;48.042;10.088;2023-03-19T13:48:35;94978.13;;;19.05;34.80
75166;BME280;63747;48.042;10.088;2023-03-19T13:51:37;94969.50;;;18.12;34.75
75166;BME280;63747;48.042;10.088;2023-03-19T13:54:39;94963.22;;;18.18;35.58
75166;BME280;63747;48.042;10.088;2023-03-19T13:57:58;94961.03;;;18.27;34.20
75166;BME280;63747;48.042;10.088;2023-03-19T14:01:34;94965.34;;;17.98;35.02
75166;BME280;63747;48.042;10.088;2023-03-19T14:04:36;94954.38;;;17.81;34.66
75166;BME280;63747;48.042;10.088;2023-03-19T14:07:39;94965.19;;;17.56;35.68
75166;BME280;63747;48.042;10.088;2023-03-19T14:10:46;94961.75;;;17.49;35.13
75166;BME280;63747;48.042;10.088;2023-03-19T14:13:51;94965.63;;;17.10;35.99
75166;BME280;63747;48.042;10.088;2023-03-19T14:16:53;94953.91;;;17.29;36.10
75166;BME280;63747;48.042;10.088;2023-03-19T14:19:55;94960.19;;;17.60;35.69
75166;BME280;63747;48.042;10.088;2023-03-19T14:26:15;94937.13;;;18.26;34.25
75166;BME280;63747;48.042;10.088;2023-03-19T14:29:16;94946.28;;;18.48;35.05
75166;BME280;63747;48.042;10.088;2023-03-19T14:32:24;94944.31;;;18.43;34.20
75166;BME280;63747;48.042;10.088;2023-03-19T14:35:31;94956.44;;;18.16;34.45
75166;BME280;63747;48.042;10.088;2023-03-19T14:38:53;94953.13;;;17.84;34.06
75166;BME280;63747;48.042;10.088;2023-03-19T14:45:58;94951.19;;;17.11;35.69
75166;BME280;63747;48.042;10.088;2023-03-19T14:52:26;94945.66;;;17.67;35.48
75166;BME280;63747;48.042;10.088;2023-03-19T14:55:33;94942.69;;;17.76;34.40
75166;BME280;63747;48.042;10.088;2023-03-19T14:58:35;94951.78;;;17.56;34.11
75166;BME280;63747;48.042;10.088;2023-03-19T15:01:38;94941.31;;;17.11;35.14
75166;BME280;63747;48.042;10.088;2023-03-19T15:04:43;94948.59;;;16.98;35.12
75166;BME280;63747;48.042;10.088;2023-03-19T15:07:46;94937.38;;;16.89;35.03
75166;BME280;63747;48.042;10.088;2023-03-19T15:11:03;94940.66;;;16.59;34.52
75166;BME280;63747;48.042;10.088;2023-03-19T15:17:26;94942.72;;;15.88;35.51
75166;BME280;63747;48.042;10.088;2023-03-19T15:20:32;94950.34;;;15.77;35.93
75166;BME280;63747;48.042;10.088;2023-03-19T15:23:33;94941.53;;;15.77;35.92
75166;BME280;63747;48.042;10.088;2023-03-19T15:26:36;94943.00;;;15.73;36.48
75166;BME280;63747;48.042;10.088;2023-03-19T15:29:36;94954.03;;;15.83;36.81
75166;BME280;63747;48.042;10.088;2023-03-19T15:32:39;94949.34;;;15.72;37.12
75166;BME280;63747;48.042;10.088;2023-03-19T15:35:42;94946.69;;;15.72;37.19
75166;BME280;63747;48.042;10.088;2023-03-19T15:42:03;94953.31;;;15.63;38.28
75166;BME280;63747;48.042;10.088;2023-03-19T15:45:09;94957.56;;;15.77;38.33
75166;BME280;63747;48.042;10.088;2023-03-19T15:48:20;94959.63;;;15.75;37.88
75166;BME280;63747;48.042;10.088;2023-03-19T15:51:22;94956.16;;;15.68;38.80
75166;BME280;63747;48.042;10.088;2023-03-19T15:54:24;94959.00;;;15.80;37.96
75166;BME280;63747;48.042;10.088;2023-03-19T15:57:26;94960.22;;;15.77;38.31
75166;BME280;63747;48.042;10.088;2023-03-19T16:00:27;94962.25;;;15.88;38.04
75166;BME280;63747;48.042;10.088;2023-03-19T16:03:35;94968.38;;;15.95;37.45
75166;BME280;63747;48.042;10.088;2023-03-19T16:06:38;94966.13;;;15.92;37.13
75166;BME280;63747;48.042;10.088;2023-03-19T16:09:39;94967.94;;;15.98;38.16
75166;BME280;63747;48.042;10.088;2023-03-19T16:12:40;94967.06;;;16.11;37.67
75166;BME280;63747;48.042;10.088;2023-03-19T16:15:46;94979.34;;;15.87;37.45
75166;BME280;63747;48.042;10.088;2023-03-19T16:18:54;94985.38;;;15.63;38.74
75166;BME280;63747;48.042;10.088;2023-03-19T16:21:56;94987.41;;;15.67;38.78
75166;BME280;63747;48.042;10.088;2023-03-19T16:24:57;94985.97;;;15.58;38.96
75166;BME280;63747;48.042;10.088;2023-03-19T16:28:00;94992.59;;;15.42;38.86
75166;BME280;63747;48.042;10.088;2023-03-19T16:31:04;94998.56;;;15.24;38.91
75166;BME280;63747;48.042;10.088;2023-03-19T16:37:33;95001.03;;;14.66;39.96
75166;BME280;63747;48.042;10.088;2023-03-19T16:40:45;95000.56;;;14.43;40.56
75166;BME280;63747;48.042;10.088;2023-03-19T16:43:46;95009.19;;;14.38;40.81
75166;BME280;63747;48.042;10.088;2023-03-19T16:46:47;95013.88;;;14.36;40.82
75166;BME280;63747;48.042;10.088;2023-03-19T16:49:48;95011.78;;;14.19;41.07
75166;BME280;63747;48.042;10.088;2023-03-19T16:52:48;95017.25;;;14.04;41.44
75166;BME280;63747;48.042;10.088;2023-03-19T16:55:50;95029.31;;;13.93;41.61
75166;BME280;63747;48.042;10.088;2023-03-19T16:58:52;95041.75;;;13.79;41.94
75166;BME280;63747;48.042;10.088;2023-03-19T17:01:52;95044.66;;;13.50;43.32
75166;BME280;63747;48.042;10.088;2023-03-19T17:04:53;95051.94;;;12.92;44.29
75166;BME280;63747;48.042;10.088;2023-03-19T17:07:54;95058.81;;;12.58;44.76
75166;BME280;63747;48.042;10.088;2023-03-19T17:10:55;95070.97;;;12.31;45.46
75166;BME280;63747;48.042;10.088;2023-03-19T17:13:57;95067.16;;;12.19;46.38
75166;BME280;63747;48.042;10.088;2023-03-19T17:16:58;95083.53;;;12.01;47.53
75166;BME280;63747;48.042;10.088;2023-03-19T17:19:59;95091.94;;;12.05;47.17
75166;BME280;63747;48.042;10.088;2023-03-19T17:23:00;95111.50;;;12.18;47.35
75166;BME280;63747;48.042;10.088;2023-03-19T17:26:01;95112.69;;;12.31;47.10
75166;BME280;63747;48.042;10.088;2023-03-19T17:29:03;95123.78;;;12.19;47.22
75166;BME280;63747;48.042;10.088;2023-03-19T17:32:05;95135.91;;;12.07;47.08